sensor_id;sensor_type;location;lat;lon;timestamp;P1;durP1;ratioP1;P2;durP2;ratioP2
30635;SDS011;17400;52.392;9.750;2024-01-16T00:01:48;1.57;;;1.17;;
30635;SDS011;17400;52.392;9.750;2024-01-16T00:04:16;1.90;;;1.30;;
30635;SDS011;17400;52.392;9.750;2024-01-16T00:06:44;7.87;;;1.40;;
30635;SDS011;17400;52.392;9.750;2024-01-16T00:09:14;1.80;;;1.27;;
30635;SDS011;17400;52.392;9.750;2024-01-16T00:11:43;1.67;;;1.03;;
30635;SDS011;17400;52.392;9.750;2024-01-16T00:14:11;4.90;;;1.23;;
30635;SDS011;17400;52.392;9.750;2024-01-16T00:16:43;4.67;;;0.83;;
30635;SDS011;17400;52.392;9.750;2024-01-16T00:19:11;2.13;;;1.03;;
30635;SDS011;17400;52.392;9.750;2024-01-16T00:21:39;1.03;;;0.70;;
30635;SDS011;17400;52.392;9.750;2024-01-16T00:24:07;1.23;;;0.97;;
30635;SDS011;17400;52.392;9.750;2024-01-16T00:26:35;2.50;;;1.13;;
30635;SDS011;17400;52.392;9.750;2024-01-16T00:29:04;1.13;;;0.80;;
30635;SDS011;17400;52.392;9.750;2024-01-16T00:31:32;3.00;;;1.20;;
30635;SDS011;17400;52.392;9.750;2024-01-16T00:34:00;0.97;;;0.83;;
30635;SDS011;17400;52.392;9.750;2024-01-16T00:36:28;1.03;;;0.80;;
30635;SDS011;17400;52.392;9.750;2024-01-16T00:38:56;1.37;;;0.97;;
30635;SDS011;17400;52.392;9.750;2024-01-16T00:41:24;2.20;;;1.07;;
30635;SDS011;17400;52.392;9.750;2024-01-16T00:43:53;3.33;;;1.20;;
30635;SDS011;17400;52.392;9.750;2024-01-16T00:46:23;1.37;;;1.03;;
30635;SDS011;17400;52.392;9.750;2024-01-16T00:48:51;1.07;;;0.77;;
30635;SDS011;17400;52.392;9.750;2024-01-16T00:51:19;1.30;;;0.60;;
30635;SDS011;17400;52.392;9.750;2024-01-16T00:53:47;1.00;;;0.70;;
30635;SDS011;17400;52.392;9.750;2024-01-16T00:56:15;5.30;;;1.10;;
30635;SDS011;17400;52.392;9.750;2024-01-16T00:58:42;0.63;;;0.53;;
30635;SDS011;17400;52.392;9.750;2024-01-16T01:01:09;0.70;;;0.60;;
30635;SDS011;17400;52.392;9.750;2024-01-16T01:03:39;2.77;;;0.70;;
30635;SDS011;17400;52.392;9.750;2024-01-16T01:06:07;0.60;;;0.60;;
30635;SDS011;17400;52.392;9.750;2024-01-16T01:08:35;1.87;;;0.60;;
30635;SDS011;17400;52.392;9.750;2024-01-16T01:11:03;0.83;;;0.70;;
30635;SDS011;17400;52.392;9.750;2024-01-16T01:13:31;3.87;;;1.13;;
30635;SDS011;17400;52.392;9.750;2024-01-16T01:15:59;0.90;;;0.80;;
30635;SDS011;17400;52.392;9.750;2024-01-16T01:18:28;2.10;;;0.90;;
30635;SDS011;17400;52.392;9.750;2024-01-16T01:20:57;2.67;;;0.90;;
30635;SDS011;17400;52.392;9.750;2024-01-16T01:23:25;1.10;;;1.00;;
30635;SDS011;17400;52.392;9.750;2024-01-16T01:25:53;2.90;;;1.10;;
30635;SDS011;17400;52.392;9.750;2024-01-16T01:28:21;2.57;;;1.43;;
30635;SDS011;17400;52.392;9.750;2024-01-16T01:30:49;7.90;;;1.10;;
30635;SDS011;17400;52.392;9.750;2024-01-16T01:33:17;1.90;;;1.10;;
30635;SDS011;17400;52.392;9.750;2024-01-16T01:35:45;4.23;;;2.03;;
30635;SDS011;17400;52.392;9.750;2024-01-16T01:38:14;2.67;;;1.20;;
30635;SDS011;17400;52.392;9.750;2024-01-16T01:40:42;1.67;;;0.97;;
30635;SDS011;17400;52.392;9.750;2024-01-16T01:43:17;1.77;;;0.87;;
30635;SDS011;17400;52.392;9.750;2024-01-16T01:46:04;1.83;;;1.20;;
30635;SDS011;17400;52.392;9.750;2024-01-16T01:48:37;2.47;;;1.17;;
30635;SDS011;17400;52.392;9.750;2024-01-16T01:51:06;2.27;;;1.20;;
30635;SDS011;17400;52.392;9.750;2024-01-16T01:53:35;2.80;;;1.30;;
30635;SDS011;17400;52.392;9.750;2024-01-16T01:56:05;2.27;;;1.00;;
30635;SDS011;17400;52.392;9.750;2024-01-16T01:58:36;3.97;;;1.20;;
30635;SDS011;17400;52.392;9.750;2024-01-16T02:01:05;1.67;;;1.03;;
30635;SDS011;17400;52.392;9.750;2024-01-16T02:03:35;2.63;;;1.00;;
30635;SDS011;17400;52.392;9.750;2024-01-16T02:06:11;1.17;;;0.70;;
30635;SDS011;17400;52.392;9.750;2024-01-16T02:08:41;2.17;;;1.30;;
30635;SDS011;17400;52.392;9.750;2024-01-16T02:11:08;7.30;;;0.97;;
30635;SDS011;17400;52.392;9.750;2024-01-16T02:13:36;0.70;;;0.63;;
30635;SDS011;17400;52.392;9.750;2024-01-16T02:16:04;1.60;;;0.80;;
30635;SDS011;17400;52.392;9.750;2024-01-16T02:18:33;1.73;;;0.90;;
30635;SDS011;17400;52.392;9.750;2024-01-16T02:21:02;3.47;;;0.90;;
30635;SDS011;17400;52.392;9.750;2024-01-16T02:23:35;1.47;;;0.90;;
30635;SDS011;17400;52.392;9.750;2024-01-16T02:26:02;1.03;;;0.70;;
30635;SDS011;17400;52.392;9.750;2024-01-16T02:28:31;2.00;;;1.37;;
30635;SDS011;17400;52.392;9.750;2024-01-16T02:30:59;5.33;;;1.00;;
30635;SDS011;17400;52.392;9.750;2024-01-16T02:33:27;2.10;;;1.23;;
30635;SDS011;17400;52.392;9.750;2024-01-16T02:35:56;1.10;;;0.70;;
30635;SDS011;17400;52.392;9.750;2024-01-16T02:38:24;6.80;;;1.27;;
30635;SDS011;17400;52.392;9.750;2024-01-16T02:40:53;2.47;;;0.80;;
30635;SDS011;17400;52.392;9.750;2024-01-16T02:43:21;1.90;;;1.03;;
30635;SDS011;17400;52.392;9.750;2024-01-16T02:45:50;2.37;;;1.27;;
30635;SDS011;17400;52.392;9.750;2024-01-16T02:48:18;1.20;;;0.83;;
30635;SDS011;17400;52.392;9.750;2024-01-16T02:50:46;2.00;;;1.00;;
30635;SDS011;17400;52.392;9.750;2024-01-16T02:53:15;0.83;;;0.63;;
30635;SDS011;17400;52.392;9.750;2024-01-16T02:55:45;6.47;;;1.10;;
30635;SDS011;17400;52.392;9.750;2024-01-16T02:58:15;0.77;;;0.57;;
30635;SDS011;17400;52.392;9.750;2024-01-16T03:00:43;0.77;;;0.60;;
30635;SDS011;17400;52.392;9.750;2024-01-16T03:03:12;0.93;;;0.60;;
30635;SDS011;17400;52.392;9.750;2024-01-16T03:05:41;1.80;;;0.70;;
30635;SDS011;17400;52.392;9.750;2024-01-16T03:08:09;1.23;;;0.77;;
30635;SDS011;17400;52.392;9.750;2024-01-16T03:10:37;1.33;;;0.97;;
30635;SDS011;17400;52.392;9.750;2024-01-16T03:13:05;1.17;;;0.80;;
30635;SDS011;17400;52.392;9.750;2024-01-16T03:15:34;2.27;;;1.37;;
30635;SDS011;17400;52.392;9.750;2024-01-16T03:18:02;2.43;;;0.80;;
30635;SDS011;17400;52.392;9.750;2024-01-16T03:20:31;4.53;;;0.97;;
30635;SDS011;17400;52.392;9.750;2024-01-16T03:22:59;3.30;;;1.50;;
30635;SDS011;17400;52.392;9.750;2024-01-16T03:25:26;0.93;;;0.63;;
30635;SDS011;17400;52.392;9.750;2024-01-16T03:27:56;1.63;;;0.90;;
30635;SDS011;17400;52.392;9.750;2024-01-16T03:30:24;1.27;;;0.97;;
30635;SDS011;17400;52.392;9.750;2024-01-16T03:32:55;1.50;;;0.90;;
30635;SDS011;17400;52.392;9.750;2024-01-16T03:35:23;1.47;;;1.07;;
30635;SDS011;17400;52.392;9.750;2024-01-16T03:37:54;8.70;;;1.90;;
30635;SDS011;17400;52.392;9.750;2024-01-16T03:40:21;1.27;;;0.77;;
30635;SDS011;17400;52.392;9.750;2024-01-16T03:42:49;2.03;;;1.03;;
30635;SDS011;17400;52.392;9.750;2024-01-16T03:45:17;0.80;;;0.73;;
30635;SDS011;17400;52.392;9.750;2024-01-16T03:47:46;1.67;;;1.00;;
30635;SDS011;17400;52.392;9.750;2024-01-16T03:50:15;3.30;;;1.90;;
30635;SDS011;17400;52.392;9.750;2024-01-16T03:52:43;1.97;;;1.40;;
30635;SDS011;17400;52.392;9.750;2024-01-16T03:55:11;1.30;;;1.10;;
30635;SDS011;17400;52.392;9.750;2024-01-16T03:57:39;1.93;;;1.17;;
30635;SDS011;17400;52.392;9.750;2024-01-16T04:00:07;2.20;;;1.03;;
30635;SDS011;17400;52.392;9.750;2024-01-16T04:02:39;3.83;;;1.40;;
30635;SDS011;17400;52.392;9.750;2024-01-16T04:05:07;4.00;;;1.20;;
30635;SDS011;17400;52.392;9.750;2024-01-16T04:07:36;3.43;;;1.37;;
30635;SDS011;17400;52.392;9.750;2024-01-16T04:10:04;2.13;;;1.10;;
30635;SDS011;17400;52.392;9.750;2024-01-16T04:12:34;4.43;;;1.30;;
30635;SDS011;17400;52.392;9.750;2024-01-16T04:15:01;3.97;;;1.20;;
30635;SDS011;17400;52.392;9.750;2024-01-16T04:17:29;2.63;;;1.13;;
30635;SDS011;17400;52.392;9.750;2024-01-16T04:19:58;3.60;;;1.27;;
30635;SDS011;17400;52.392;9.750;2024-01-16T04:22:25;3.20;;;1.73;;
30635;SDS011;17400;52.392;9.750;2024-01-16T04:24:55;1.37;;;1.00;;
30635;SDS011;17400;52.392;9.750;2024-01-16T04:27:23;2.37;;;1.23;;
30635;SDS011;17400;52.392;9.750;2024-01-16T04:29:51;3.43;;;1.33;;
30635;SDS011;17400;52.392;9.750;2024-01-16T04:32:19;1.87;;;1.20;;
30635;SDS011;17400;52.392;9.750;2024-01-16T04:34:47;5.13;;;1.00;;
30635;SDS011;17400;52.392;9.750;2024-01-16T04:37:15;6.27;;;1.47;;
30635;SDS011;17400;52.392;9.750;2024-01-16T04:39:42;1.57;;;0.90;;
30635;SDS011;17400;52.392;9.750;2024-01-16T04:42:12;1.53;;;0.87;;
30635;SDS011;17400;52.392;9.750;2024-01-16T04:44:39;1.70;;;1.00;;
30635;SDS011;17400;52.392;9.750;2024-01-16T04:47:07;4.13;;;1.10;;
30635;SDS011;17400;52.392;9.750;2024-01-16T04:49:35;3.80;;;1.20;;
30635;SDS011;17400;52.392;9.750;2024-01-16T04:52:04;2.93;;;1.07;;
30635;SDS011;17400;52.392;9.750;2024-01-16T04:54:32;3.40;;;1.17;;
30635;SDS011;17400;52.392;9.750;2024-01-16T04:57:00;2.93;;;0.97;;
30635;SDS011;17400;52.392;9.750;2024-01-16T04:59:29;3.47;;;1.10;;
30635;SDS011;17400;52.392;9.750;2024-01-16T05:01:58;1.97;;;1.17;;
30635;SDS011;17400;52.392;9.750;2024-01-16T05:04:26;3.17;;;1.20;;
30635;SDS011;17400;52.392;9.750;2024-01-16T05:06:53;3.73;;;0.93;;
30635;SDS011;17400;52.392;9.750;2024-01-16T05:09:21;2.73;;;1.07;;
30635;SDS011;17400;52.392;9.750;2024-01-16T05:11:49;3.87;;;1.20;;
30635;SDS011;17400;52.392;9.750;2024-01-16T05:14:17;1.73;;;1.00;;
30635;SDS011;17400;52.392;9.750;2024-01-16T05:16:46;1.67;;;1.00;;
30635;SDS011;17400;52.392;9.750;2024-01-16T05:19:14;2.20;;;1.10;;
30635;SDS011;17400;52.392;9.750;2024-01-16T05:21:42;7.70;;;1.70;;
30635;SDS011;17400;52.392;9.750;2024-01-16T05:24:12;2.87;;;1.50;;
30635;SDS011;17400;52.392;9.750;2024-01-16T05:26:39;5.67;;;2.20;;
30635;SDS011;17400;52.392;9.750;2024-01-16T05:29:08;5.97;;;1.73;;
30635;SDS011;17400;52.392;9.750;2024-01-16T05:31:39;3.30;;;2.23;;
30635;SDS011;17400;52.392;9.750;2024-01-16T05:34:09;3.23;;;1.70;;
30635;SDS011;17400;52.392;9.750;2024-01-16T05:36:40;5.07;;;1.80;;
30635;SDS011;17400;52.392;9.750;2024-01-16T05:39:08;5.33;;;2.13;;
30635;SDS011;17400;52.392;9.750;2024-01-16T05:41:37;3.87;;;1.80;;
30635;SDS011;17400;52.392;9.750;2024-01-16T05:44:05;3.77;;;1.43;;
30635;SDS011;17400;52.392;9.750;2024-01-16T05:46:33;6.10;;;1.83;;
30635;SDS011;17400;52.392;9.750;2024-01-16T05:49:01;1.60;;;1.17;;
30635;SDS011;17400;52.392;9.750;2024-01-16T05:51:31;8.13;;;1.97;;
30635;SDS011;17400;52.392;9.750;2024-01-16T05:53:59;5.07;;;1.60;;
30635;SDS011;17400;52.392;9.750;2024-01-16T05:56:27;5.53;;;2.60;;
30635;SDS011;17400;52.392;9.750;2024-01-16T05:58:55;3.00;;;1.10;;
30635;SDS011;17400;52.392;9.750;2024-01-16T06:01:23;2.57;;;1.37;;
30635;SDS011;17400;52.392;9.750;2024-01-16T06:03:51;2.77;;;1.43;;
30635;SDS011;17400;52.392;9.750;2024-01-16T06:06:19;4.10;;;1.73;;
30635;SDS011;17400;52.392;9.750;2024-01-16T06:08:48;2.60;;;1.37;;
30635;SDS011;17400;52.392;9.750;2024-01-16T06:11:16;2.47;;;1.40;;
30635;SDS011;17400;52.392;9.750;2024-01-16T06:13:45;4.03;;;1.90;;
30635;SDS011;17400;52.392;9.750;2024-01-16T06:16:13;7.20;;;1.90;;
30635;SDS011;17400;52.392;9.750;2024-01-16T06:18:41;4.33;;;1.60;;
30635;SDS011;17400;52.392;9.750;2024-01-16T06:21:09;8.57;;;2.57;;
30635;SDS011;17400;52.392;9.750;2024-01-16T06:23:38;3.97;;;1.47;;
30635;SDS011;17400;52.392;9.750;2024-01-16T06:26:08;4.47;;;1.50;;
30635;SDS011;17400;52.392;9.750;2024-01-16T06:28:37;2.93;;;1.67;;
30635;SDS011;17400;52.392;9.750;2024-01-16T06:31:04;2.27;;;1.63;;
30635;SDS011;17400;52.392;9.750;2024-01-16T06:33:33;6.10;;;2.13;;
30635;SDS011;17400;52.392;9.750;2024-01-16T06:36:02;3.70;;;1.80;;
30635;SDS011;17400;52.392;9.750;2024-01-16T06:38:31;9.73;;;2.90;;
30635;SDS011;17400;52.392;9.750;2024-01-16T06:40:59;5.37;;;2.20;;
30635;SDS011;17400;52.392;9.750;2024-01-16T06:43:29;5.37;;;1.77;;
30635;SDS011;17400;52.392;9.750;2024-01-16T06:45:57;7.80;;;2.67;;
30635;SDS011;17400;52.392;9.750;2024-01-16T06:48:26;3.37;;;1.60;;
30635;SDS011;17400;52.392;9.750;2024-01-16T06:50:57;5.07;;;2.00;;
30635;SDS011;17400;52.392;9.750;2024-01-16T06:53:25;5.40;;;1.90;;
30635;SDS011;17400;52.392;9.750;2024-01-16T06:55:55;5.30;;;2.03;;
30635;SDS011;17400;52.392;9.750;2024-01-16T06:58:26;3.93;;;2.30;;
30635;SDS011;17400;52.392;9.750;2024-01-16T07:00:55;3.70;;;2.00;;
30635;SDS011;17400;52.392;9.750;2024-01-16T07:03:23;3.90;;;2.20;;
30635;SDS011;17400;52.392;9.750;2024-01-16T07:05:51;3.37;;;2.13;;
30635;SDS011;17400;52.392;9.750;2024-01-16T07:08:19;3.63;;;1.90;;
30635;SDS011;17400;52.392;9.750;2024-01-16T07:10:47;3.03;;;1.97;;
30635;SDS011;17400;52.392;9.750;2024-01-16T07:13:16;2.53;;;1.33;;
30635;SDS011;17400;52.392;9.750;2024-01-16T07:15:44;5.93;;;2.10;;
30635;SDS011;17400;52.392;9.750;2024-01-16T07:18:13;7.10;;;2.07;;
30635;SDS011;17400;52.392;9.750;2024-01-16T07:20:41;3.87;;;2.13;;
30635;SDS011;17400;52.392;9.750;2024-01-16T07:23:09;4.63;;;1.50;;
30635;SDS011;17400;52.392;9.750;2024-01-16T07:25:37;5.90;;;2.60;;
30635;SDS011;17400;52.392;9.750;2024-01-16T07:28:06;5.73;;;2.07;;
30635;SDS011;17400;52.392;9.750;2024-01-16T07:30:35;5.43;;;1.43;;
30635;SDS011;17400;52.392;9.750;2024-01-16T07:33:03;2.70;;;1.17;;
30635;SDS011;17400;52.392;9.750;2024-01-16T07:35:33;6.43;;;2.03;;
30635;SDS011;17400;52.392;9.750;2024-01-16T07:38:01;5.43;;;1.97;;
30635;SDS011;17400;52.392;9.750;2024-01-16T07:40:31;3.20;;;1.57;;
30635;SDS011;17400;52.392;9.750;2024-01-16T07:42:59;4.77;;;2.07;;
30635;SDS011;17400;52.392;9.750;2024-01-16T07:45:27;4.90;;;2.10;;
30635;SDS011;17400;52.392;9.750;2024-01-16T07:47:55;5.53;;;2.20;;
30635;SDS011;17400;52.392;9.750;2024-01-16T07:50:25;2.13;;;1.37;;
30635;SDS011;17400;52.392;9.750;2024-01-16T07:52:55;3.77;;;2.03;;
30635;SDS011;17400;52.392;9.750;2024-01-16T07:55:23;8.97;;;2.63;;
30635;SDS011;17400;52.392;9.750;2024-01-16T07:57:51;9.30;;;2.83;;
30635;SDS011;17400;52.392;9.750;2024-01-16T08:00:19;2.87;;;1.70;;
30635;SDS011;17400;52.392;9.750;2024-01-16T08:02:48;4.33;;;2.10;;
30635;SDS011;17400;52.392;9.750;2024-01-16T08:05:16;5.83;;;2.90;;
30635;SDS011;17400;52.392;9.750;2024-01-16T08:07:44;4.37;;;2.47;;
30635;SDS011;17400;52.392;9.750;2024-01-16T08:10:14;4.47;;;2.33;;
30635;SDS011;17400;52.392;9.750;2024-01-16T08:12:45;6.23;;;2.70;;
30635;SDS011;17400;52.392;9.750;2024-01-16T08:15:12;4.47;;;2.20;;
30635;SDS011;17400;52.392;9.750;2024-01-16T08:17:40;3.63;;;2.13;;
30635;SDS011;17400;52.392;9.750;2024-01-16T08:20:09;5.37;;;2.47;;
30635;SDS011;17400;52.392;9.750;2024-01-16T08:22:37;4.57;;;2.53;;
30635;SDS011;17400;52.392;9.750;2024-01-16T08:25:05;5.70;;;1.97;;
30635;SDS011;17400;52.392;9.750;2024-01-16T08:27:35;5.10;;;2.03;;
30635;SDS011;17400;52.392;9.750;2024-01-16T08:30:05;8.30;;;2.50;;
30635;SDS011;17400;52.392;9.750;2024-01-16T08:32:34;3.80;;;1.60;;
30635;SDS011;17400;52.392;9.750;2024-01-16T08:35:02;11.77;;;2.37;;
30635;SDS011;17400;52.392;9.750;2024-01-16T08:37:31;2.27;;;1.67;;
30635;SDS011;17400;52.392;9.750;2024-01-16T08:40:00;4.47;;;2.47;;
30635;SDS011;17400;52.392;9.750;2024-01-16T08:42:30;4.50;;;2.33;;
30635;SDS011;17400;52.392;9.750;2024-01-16T08:44:59;7.47;;;2.80;;
30635;SDS011;17400;52.392;9.750;2024-01-16T08:47:28;5.27;;;2.43;;
30635;SDS011;17400;52.392;9.750;2024-01-16T08:49:56;6.40;;;2.43;;
30635;SDS011;17400;52.392;9.750;2024-01-16T08:52:24;6.50;;;2.83;;
30635;SDS011;17400;52.392;9.750;2024-01-16T08:54:52;4.60;;;1.97;;
30635;SDS011;17400;52.392;9.750;2024-01-16T08:57:20;5.43;;;2.60;;
30635;SDS011;17400;52.392;9.750;2024-01-16T08:59:51;6.47;;;2.30;;
30635;SDS011;17400;52.392;9.750;2024-01-16T09:02:21;8.03;;;2.13;;
30635;SDS011;17400;52.392;9.750;2024-01-16T09:04:49;5.23;;;3.23;;
30635;SDS011;17400;52.392;9.750;2024-01-16T09:07:17;6.37;;;2.60;;
30635;SDS011;17400;52.392;9.750;2024-01-16T09:09:46;4.73;;;2.80;;
30635;SDS011;17400;52.392;9.750;2024-01-16T09:12:14;6.77;;;3.60;;
30635;SDS011;17400;52.392;9.750;2024-01-16T09:14:42;4.83;;;3.00;;
30635;SDS011;17400;52.392;9.750;2024-01-16T09:17:10;5.97;;;3.07;;
30635;SDS011;17400;52.392;9.750;2024-01-16T09:19:40;5.53;;;3.00;;
30635;SDS011;17400;52.392;9.750;2024-01-16T09:22:08;4.67;;;2.57;;
30635;SDS011;17400;52.392;9.750;2024-01-16T09:24:36;5.87;;;2.30;;
30635;SDS011;17400;52.392;9.750;2024-01-16T09:27:04;5.27;;;2.87;;
30635;SDS011;17400;52.392;9.750;2024-01-16T09:29:33;6.57;;;2.60;;
30635;SDS011;17400;52.392;9.750;2024-01-16T09:32:01;6.83;;;3.13;;
30635;SDS011;17400;52.392;9.750;2024-01-16T09:34:29;4.17;;;2.67;;
30635;SDS011;17400;52.392;9.750;2024-01-16T09:36:59;5.80;;;2.70;;
30635;SDS011;17400;52.392;9.750;2024-01-16T09:39:29;12.13;;;3.97;;
30635;SDS011;17400;52.392;9.750;2024-01-16T09:41:59;4.93;;;2.23;;
30635;SDS011;17400;52.392;9.750;2024-01-16T09:44:27;3.60;;;2.27;;
30635;SDS011;17400;52.392;9.750;2024-01-16T09:46:55;4.87;;;2.40;;
30635;SDS011;17400;52.392;9.750;2024-01-16T09:49:27;8.47;;;3.43;;
30635;SDS011;17400;52.392;9.750;2024-01-16T09:51:55;5.40;;;2.17;;
30635;SDS011;17400;52.392;9.750;2024-01-16T09:54:26;5.73;;;2.50;;
30635;SDS011;17400;52.392;9.750;2024-01-16T09:56:55;5.27;;;2.17;;
30635;SDS011;17400;52.392;9.750;2024-01-16T09:59:26;4.33;;;2.27;;
30635;SDS011;17400;52.392;9.750;2024-01-16T10:01:56;8.13;;;2.70;;
30635;SDS011;17400;52.392;9.750;2024-01-16T10:04:25;8.10;;;2.40;;
30635;SDS011;17400;52.392;9.750;2024-01-16T10:06:54;5.07;;;2.70;;
30635;SDS011;17400;52.392;9.750;2024-01-16T10:09:26;4.93;;;2.80;;
30635;SDS011;17400;52.392;9.750;2024-01-16T10:11:54;6.10;;;2.33;;
30635;SDS011;17400;52.392;9.750;2024-01-16T10:14:22;9.57;;;2.43;;
30635;SDS011;17400;52.392;9.750;2024-01-16T10:16:55;4.13;;;2.30;;
30635;SDS011;17400;52.392;9.750;2024-01-16T10:19:26;5.30;;;2.10;;
30635;SDS011;17400;52.392;9.750;2024-01-16T10:22:11;4.57;;;2.20;;
30635;SDS011;17400;52.392;9.750;2024-01-16T10:24:41;5.23;;;2.40;;
30635;SDS011;17400;52.392;9.750;2024-01-16T10:27:09;6.07;;;2.73;;
30635;SDS011;17400;52.392;9.750;2024-01-16T10:29:37;5.67;;;1.90;;
30635;SDS011;17400;52.392;9.750;2024-01-16T10:32:28;4.13;;;1.93;;
30635;SDS011;17400;52.392;9.750;2024-01-16T10:35:01;5.33;;;2.77;;
30635;SDS011;17400;52.392;9.750;2024-01-16T10:37:42;5.87;;;2.50;;
30635;SDS011;17400;52.392;9.750;2024-01-16T10:40:15;5.53;;;2.47;;
30635;SDS011;17400;52.392;9.750;2024-01-16T10:42:56;5.40;;;2.20;;
30635;SDS011;17400;52.392;9.750;2024-01-16T10:45:25;6.97;;;2.50;;
30635;SDS011;17400;52.392;9.750;2024-01-16T10:48:00;9.40;;;2.63;;
30635;SDS011;17400;52.392;9.750;2024-01-16T10:50:30;7.37;;;2.73;;
30635;SDS011;17400;52.392;9.750;2024-01-16T10:52:59;3.30;;;1.77;;
30635;SDS011;17400;52.392;9.750;2024-01-16T10:55:30;6.53;;;2.53;;
30635;SDS011;17400;52.392;9.750;2024-01-16T10:58:01;3.53;;;2.07;;
30635;SDS011;17400;52.392;9.750;2024-01-16T11:00:30;6.10;;;2.70;;
30635;SDS011;17400;52.392;9.750;2024-01-16T11:03:01;5.83;;;2.67;;
30635;SDS011;17400;52.392;9.750;2024-01-16T11:05:33;4.10;;;2.40;;
30635;SDS011;17400;52.392;9.750;2024-01-16T11:08:04;6.23;;;2.20;;
30635;SDS011;17400;52.392;9.750;2024-01-16T11:10:34;3.87;;;1.97;;
30635;SDS011;17400;52.392;9.750;2024-01-16T11:13:03;7.67;;;2.90;;
30635;SDS011;17400;52.392;9.750;2024-01-16T11:15:33;6.07;;;4.00;;
30635;SDS011;17400;52.392;9.750;2024-01-16T11:18:04;6.63;;;2.97;;
30635;SDS011;17400;52.392;9.750;2024-01-16T11:20:33;5.20;;;2.67;;
30635;SDS011;17400;52.392;9.750;2024-01-16T11:23:23;5.53;;;2.47;;
30635;SDS011;17400;52.392;9.750;2024-01-16T11:25:52;5.60;;;2.50;;
30635;SDS011;17400;52.392;9.750;2024-01-16T11:28:20;4.47;;;1.73;;
30635;SDS011;17400;52.392;9.750;2024-01-16T11:30:54;5.37;;;2.13;;
30635;SDS011;17400;52.392;9.750;2024-01-16T11:39:10;2.90;;;1.83;;
30635;SDS011;17400;52.392;9.750;2024-01-16T11:41:49;2.67;;;1.43;;
30635;SDS011;17400;52.392;9.750;2024-01-16T11:47:09;4.30;;;1.80;;
30635;SDS011;17400;52.392;9.750;2024-01-16T11:49:43;6.53;;;2.30;;
30635;SDS011;17400;52.392;9.750;2024-01-16T11:52:12;2.43;;;1.43;;
30635;SDS011;17400;52.392;9.750;2024-01-16T11:54:40;3.40;;;1.73;;
30635;SDS011;17400;52.392;9.750;2024-01-16T11:57:30;4.17;;;2.20;;
30635;SDS011;17400;52.392;9.750;2024-01-16T12:00:18;5.70;;;2.77;;
30635;SDS011;17400;52.392;9.750;2024-01-16T12:02:48;3.57;;;1.67;;
30635;SDS011;17400;52.392;9.750;2024-01-16T12:05:19;4.50;;;2.40;;
30635;SDS011;17400;52.392;9.750;2024-01-16T12:07:50;4.33;;;2.13;;
30635;SDS011;17400;52.392;9.750;2024-01-16T12:10:20;2.63;;;1.47;;
30635;SDS011;17400;52.392;9.750;2024-01-16T12:12:51;7.93;;;2.63;;
30635;SDS011;17400;52.392;9.750;2024-01-16T12:15:30;4.57;;;2.57;;
30635;SDS011;17400;52.392;9.750;2024-01-16T12:17:59;3.27;;;2.00;;
30635;SDS011;17400;52.392;9.750;2024-01-16T12:20:29;5.00;;;2.37;;
30635;SDS011;17400;52.392;9.750;2024-01-16T12:22:59;8.03;;;3.07;;
30635;SDS011;17400;52.392;9.750;2024-01-16T12:25:32;6.03;;;3.27;;
30635;SDS011;17400;52.392;9.750;2024-01-16T12:28:22;8.73;;;3.07;;
30635;SDS011;17400;52.392;9.750;2024-01-16T12:30:59;5.30;;;2.20;;
30635;SDS011;17400;52.392;9.750;2024-01-16T12:33:28;4.27;;;2.37;;
30635;SDS011;17400;52.392;9.750;2024-01-16T12:36:00;3.77;;;2.63;;
30635;SDS011;17400;52.392;9.750;2024-01-16T12:38:32;5.60;;;2.70;;
30635;SDS011;17400;52.392;9.750;2024-01-16T12:41:00;6.40;;;3.07;;
30635;SDS011;17400;52.392;9.750;2024-01-16T12:43:32;5.77;;;2.10;;
30635;SDS011;17400;52.392;9.750;2024-01-16T12:46:00;5.90;;;2.53;;
30635;SDS011;17400;52.392;9.750;2024-01-16T12:48:28;4.93;;;2.13;;
30635;SDS011;17400;52.392;9.750;2024-01-16T12:51:00;4.33;;;2.90;;
30635;SDS011;17400;52.392;9.750;2024-01-16T12:53:31;4.63;;;2.80;;
30635;SDS011;17400;52.392;9.750;2024-01-16T12:56:01;7.83;;;3.33;;
30635;SDS011;17400;52.392;9.750;2024-01-16T12:58:35;4.20;;;2.67;;
30635;SDS011;17400;52.392;9.750;2024-01-16T13:01:23;5.90;;;2.63;;
30635;SDS011;17400;52.392;9.750;2024-01-16T13:04:05;6.60;;;3.07;;
30635;SDS011;17400;52.392;9.750;2024-01-16T13:06:34;6.83;;;3.70;;
30635;SDS011;17400;52.392;9.750;2024-01-16T13:09:06;7.30;;;3.10;;
30635;SDS011;17400;52.392;9.750;2024-01-16T13:11:45;5.90;;;3.13;;
30635;SDS011;17400;52.392;9.750;2024-01-16T13:14:15;9.10;;;3.60;;
30635;SDS011;17400;52.392;9.750;2024-01-16T13:16:43;4.27;;;3.07;;
30635;SDS011;17400;52.392;9.750;2024-01-16T13:19:11;6.93;;;3.57;;
30635;SDS011;17400;52.392;9.750;2024-01-16T13:21:39;7.90;;;2.93;;
30635;SDS011;17400;52.392;9.750;2024-01-16T13:24:07;5.20;;;3.00;;
30635;SDS011;17400;52.392;9.750;2024-01-16T13:26:35;5.97;;;3.43;;
30635;SDS011;17400;52.392;9.750;2024-01-16T13:29:04;6.50;;;3.70;;
30635;SDS011;17400;52.392;9.750;2024-01-16T13:31:33;5.70;;;4.37;;
30635;SDS011;17400;52.392;9.750;2024-01-16T13:34:01;8.40;;;3.90;;
30635;SDS011;17400;52.392;9.750;2024-01-16T13:36:30;6.30;;;3.23;;
30635;SDS011;17400;52.392;9.750;2024-01-16T13:39:17;10.37;;;4.63;;
30635;SDS011;17400;52.392;9.750;2024-01-16T13:41:46;5.87;;;3.60;;
30635;SDS011;17400;52.392;9.750;2024-01-16T13:44:14;8.30;;;4.70;;
30635;SDS011;17400;52.392;9.750;2024-01-16T13:46:44;11.10;;;4.40;;
30635;SDS011;17400;52.392;9.750;2024-01-16T13:49:31;8.77;;;4.53;;
30635;SDS011;17400;52.392;9.750;2024-01-16T13:52:00;7.60;;;4.67;;
30635;SDS011;17400;52.392;9.750;2024-01-16T13:54:29;12.80;;;5.47;;
30635;SDS011;17400;52.392;9.750;2024-01-16T13:56:57;9.97;;;4.83;;
30635;SDS011;17400;52.392;9.750;2024-01-16T13:59:33;9.23;;;4.67;;
30635;SDS011;17400;52.392;9.750;2024-01-16T14:02:03;7.00;;;3.73;;
30635;SDS011;17400;52.392;9.750;2024-01-16T14:04:32;9.80;;;5.50;;
30635;SDS011;17400;52.392;9.750;2024-01-16T14:07:00;9.17;;;6.07;;
30635;SDS011;17400;52.392;9.750;2024-01-16T14:09:39;7.27;;;4.60;;
30635;SDS011;17400;52.392;9.750;2024-01-16T14:12:10;10.03;;;6.20;;
30635;SDS011;17400;52.392;9.750;2024-01-16T14:14:39;10.27;;;4.63;;
30635;SDS011;17400;52.392;9.750;2024-01-16T14:17:09;6.93;;;4.83;;
30635;SDS011;17400;52.392;9.750;2024-01-16T14:19:37;12.93;;;6.07;;
30635;SDS011;17400;52.392;9.750;2024-01-16T14:22:05;9.43;;;5.80;;
30635;SDS011;17400;52.392;9.750;2024-01-16T14:24:33;13.33;;;7.13;;
30635;SDS011;17400;52.392;9.750;2024-01-16T14:27:01;20.83;;;10.17;;
30635;SDS011;17400;52.392;9.750;2024-01-16T14:29:29;10.07;;;5.93;;
30635;SDS011;17400;52.392;9.750;2024-01-16T14:31:57;9.53;;;5.60;;
30635;SDS011;17400;52.392;9.750;2024-01-16T14:34:26;9.93;;;6.53;;
30635;SDS011;17400;52.392;9.750;2024-01-16T14:36:56;12.17;;;6.97;;
30635;SDS011;17400;52.392;9.750;2024-01-16T14:39:24;10.67;;;6.93;;
30635;SDS011;17400;52.392;9.750;2024-01-16T14:41:53;12.73;;;6.50;;
30635;SDS011;17400;52.392;9.750;2024-01-16T14:44:25;8.13;;;5.70;;
30635;SDS011;17400;52.392;9.750;2024-01-16T14:46:53;8.90;;;6.47;;
30635;SDS011;17400;52.392;9.750;2024-01-16T14:49:21;8.53;;;5.57;;
30635;SDS011;17400;52.392;9.750;2024-01-16T14:51:50;10.17;;;5.90;;
30635;SDS011;17400;52.392;9.750;2024-01-16T14:54:18;9.27;;;5.80;;
30635;SDS011;17400;52.392;9.750;2024-01-16T14:56:46;9.53;;;5.23;;
30635;SDS011;17400;52.392;9.750;2024-01-16T14:59:15;9.00;;;5.73;;
30635;SDS011;17400;52.392;9.750;2024-01-16T15:01:44;7.80;;;5.80;;
30635;SDS011;17400;52.392;9.750;2024-01-16T15:04:11;8.77;;;5.90;;
30635;SDS011;17400;52.392;9.750;2024-01-16T15:06:40;8.83;;;4.97;;
30635;SDS011;17400;52.392;9.750;2024-01-16T15:09:09;11.47;;;5.93;;
30635;SDS011;17400;52.392;9.750;2024-01-16T15:11:39;9.83;;;5.40;;